sensor_id;sensor_type;location;lat;lon;timestamp;P1;durP1;ratioP1;P2;durP2;ratioP2
48552;SDS011;34335;51.566;6.994;2024-01-10T00:00:30;2.22;;;1.23;;
48552;SDS011;34335;51.566;6.994;2024-01-10T00:02:55;4.10;;;1.35;;
48552;SDS011;34335;51.566;6.994;2024-01-10T00:05:20;9.18;;;2.03;;
48552;SDS011;34335;51.566;6.994;2024-01-10T00:07:46;3.30;;;1.65;;
48552;SDS011;34335;51.566;6.994;2024-01-10T00:10:11;3.45;;;1.20;;
48552;SDS011;34335;51.566;6.994;2024-01-10T00:12:36;2.80;;;1.40;;
48552;SDS011;34335;51.566;6.994;2024-01-10T00:15:05;3.05;;;1.25;;
48552;SDS011;34335;51.566;6.994;2024-01-10T00:17:31;3.47;;;0.57;;
48552;SDS011;34335;51.566;6.994;2024-01-10T00:19:56;13.27;;;1.27;;
48552;SDS011;34335;51.566;6.994;2024-01-10T00:22:21;3.50;;;0.85;;
48552;SDS011;34335;51.566;6.994;2024-01-10T00:24:47;2.25;;;1.08;;
48552;SDS011;34335;51.566;6.994;2024-01-10T00:27:12;2.90;;;1.50;;
48552;SDS011;34335;51.566;6.994;2024-01-10T00:29:37;5.13;;;1.27;;
48552;SDS011;34335;51.566;6.994;2024-01-10T00:32:03;2.67;;;1.45;;
48552;SDS011;34335;51.566;6.994;2024-01-10T00:34:29;1.00;;;0.57;;
48552;SDS011;34335;51.566;6.994;2024-01-10T00:36:54;3.75;;;1.80;;
48552;SDS011;34335;51.566;6.994;2024-01-10T00:39:19;3.90;;;1.02;;
48552;SDS011;34335;51.566;6.994;2024-01-10T00:41:45;1.70;;;0.82;;
48552;SDS011;34335;51.566;6.994;2024-01-10T00:44:10;4.15;;;0.90;;
48552;SDS011;34335;51.566;6.994;2024-01-10T00:46:35;1.27;;;0.98;;
48552;SDS011;34335;51.566;6.994;2024-01-10T00:49:01;1.67;;;1.38;;
48552;SDS011;34335;51.566;6.994;2024-01-10T00:51:26;3.45;;;1.63;;
48552;SDS011;34335;51.566;6.994;2024-01-10T00:53:51;3.58;;;1.48;;
48552;SDS011;34335;51.566;6.994;2024-01-10T00:56:17;2.83;;;1.05;;
48552;SDS011;34335;51.566;6.994;2024-01-10T00:58:42;6.07;;;2.13;;
48552;SDS011;34335;51.566;6.994;2024-01-10T01:01:07;0.88;;;0.82;;
48552;SDS011;34335;51.566;6.994;2024-01-10T01:03:32;5.05;;;2.28;;
48552;SDS011;34335;51.566;6.994;2024-01-10T01:05:58;10.20;;;1.48;;
48552;SDS011;34335;51.566;6.994;2024-01-10T01:08:23;1.73;;;1.20;;
48552;SDS011;34335;51.566;6.994;2024-01-10T01:10:48;5.45;;;1.42;;
48552;SDS011;34335;51.566;6.994;2024-01-10T01:13:13;2.70;;;0.90;;
48552;SDS011;34335;51.566;6.994;2024-01-10T01:15:39;4.63;;;1.45;;
48552;SDS011;34335;51.566;6.994;2024-01-10T01:18:04;0.95;;;0.82;;
48552;SDS011;34335;51.566;6.994;2024-01-10T01:20:30;5.45;;;1.58;;
48552;SDS011;34335;51.566;6.994;2024-01-10T01:22:56;1.95;;;1.35;;
48552;SDS011;34335;51.566;6.994;2024-01-10T01:25:21;1.25;;;1.08;;
48552;SDS011;34335;51.566;6.994;2024-01-10T01:27:46;1.65;;;1.25;;
48552;SDS011;34335;51.566;6.994;2024-01-10T01:30:11;6.03;;;1.40;;
48552;SDS011;34335;51.566;6.994;2024-01-10T01:32:37;3.00;;;1.35;;
48552;SDS011;34335;51.566;6.994;2024-01-10T01:35:02;1.17;;;0.88;;
48552;SDS011;34335;51.566;6.994;2024-01-10T01:37:28;3.42;;;1.50;;
48552;SDS011;34335;51.566;6.994;2024-01-10T01:39:54;5.28;;;2.42;;
48552;SDS011;34335;51.566;6.994;2024-01-10T01:42:19;2.10;;;1.63;;
48552;SDS011;34335;51.566;6.994;2024-01-10T01:44:44;8.43;;;2.88;;
48552;SDS011;34335;51.566;6.994;2024-01-10T01:47:10;3.38;;;1.73;;
48552;SDS011;34335;51.566;6.994;2024-01-10T01:49:35;1.50;;;1.00;;
48552;SDS011;34335;51.566;6.994;2024-01-10T01:52:01;0.93;;;0.68;;
48552;SDS011;34335;51.566;6.994;2024-01-10T01:54:27;5.45;;;1.60;;
48552;SDS011;34335;51.566;6.994;2024-01-10T01:56:52;6.90;;;1.95;;
48552;SDS011;34335;51.566;6.994;2024-01-10T01:59:17;2.70;;;1.55;;
48552;SDS011;34335;51.566;6.994;2024-01-10T02:01:44;5.07;;;1.67;;
48552;SDS011;34335;51.566;6.994;2024-01-10T02:04:10;3.28;;;1.60;;
48552;SDS011;34335;51.566;6.994;2024-01-10T02:06:36;4.68;;;1.58;;
48552;SDS011;34335;51.566;6.994;2024-01-10T02:09:02;1.55;;;0.88;;
48552;SDS011;34335;51.566;6.994;2024-01-10T02:11:28;6.07;;;3.10;;
48552;SDS011;34335;51.566;6.994;2024-01-10T02:13:53;2.65;;;1.52;;
48552;SDS011;34335;51.566;6.994;2024-01-10T02:16:19;2.78;;;1.25;;
48552;SDS011;34335;51.566;6.994;2024-01-10T02:18:45;4.55;;;1.65;;
48552;SDS011;34335;51.566;6.994;2024-01-10T02:21:10;3.58;;;1.80;;
48552;SDS011;34335;51.566;6.994;2024-01-10T02:23:36;0.28;;;0.15;;
48552;SDS011;34335;51.566;6.994;2024-01-10T02:26:01;5.47;;;1.95;;
48552;SDS011;34335;51.566;6.994;2024-01-10T02:28:27;4.30;;;1.55;;
48552;SDS011;34335;51.566;6.994;2024-01-10T02:30:52;3.45;;;1.02;;
48552;SDS011;34335;51.566;6.994;2024-01-10T02:33:19;7.18;;;2.10;;
48552;SDS011;34335;51.566;6.994;2024-01-10T02:35:45;1.15;;;0.88;;
48552;SDS011;34335;51.566;6.994;2024-01-10T02:38:10;3.30;;;1.48;;
48552;SDS011;34335;51.566;6.994;2024-01-10T02:40:35;5.40;;;1.92;;
48552;SDS011;34335;51.566;6.994;2024-01-10T02:43:01;3.67;;;0.85;;
48552;SDS011;34335;51.566;6.994;2024-01-10T02:45:26;6.15;;;1.73;;
48552;SDS011;34335;51.566;6.994;2024-01-10T02:47:51;2.78;;;1.45;;
48552;SDS011;34335;51.566;6.994;2024-01-10T02:50:17;2.05;;;1.20;;
48552;SDS011;34335;51.566;6.994;2024-01-10T02:52:42;1.63;;;1.15;;
48552;SDS011;34335;51.566;6.994;2024-01-10T02:55:07;2.78;;;0.88;;
48552;SDS011;34335;51.566;6.994;2024-01-10T02:57:33;7.47;;;1.77;;
48552;SDS011;34335;51.566;6.994;2024-01-10T02:59:58;1.27;;;0.73;;
48552;SDS011;34335;51.566;6.994;2024-01-10T03:02:23;3.10;;;0.90;;
48552;SDS011;34335;51.566;6.994;2024-01-10T03:04:49;4.25;;;1.85;;
48552;SDS011;34335;51.566;6.994;2024-01-10T03:07:14;4.10;;;1.63;;
48552;SDS011;34335;51.566;6.994;2024-01-10T03:09:39;6.50;;;1.70;;
48552;SDS011;34335;51.566;6.994;2024-01-10T03:12:04;5.13;;;1.35;;
48552;SDS011;34335;51.566;6.994;2024-01-10T03:14:30;2.47;;;1.00;;
48552;SDS011;34335;51.566;6.994;2024-01-10T03:16:55;4.32;;;2.03;;
48552;SDS011;34335;51.566;6.994;2024-01-10T03:19:20;7.65;;;1.70;;
48552;SDS011;34335;51.566;6.994;2024-01-10T03:21:46;1.52;;;0.70;;
48552;SDS011;34335;51.566;6.994;2024-01-10T03:24:11;1.35;;;0.85;;
48552;SDS011;34335;51.566;6.994;2024-01-10T03:26:36;3.58;;;2.03;;
48552;SDS011;34335;51.566;6.994;2024-01-10T03:29:02;7.30;;;2.03;;
48552;SDS011;34335;51.566;6.994;2024-01-10T03:31:28;1.45;;;0.70;;
48552;SDS011;34335;51.566;6.994;2024-01-10T03:33:57;4.45;;;1.15;;
48552;SDS011;34335;51.566;6.994;2024-01-10T03:36:23;2.67;;;1.05;;
48552;SDS011;34335;51.566;6.994;2024-01-10T03:38:49;1.73;;;1.00;;
48552;SDS011;34335;51.566;6.994;2024-01-10T03:41:18;3.08;;;1.10;;
48552;SDS011;34335;51.566;6.994;2024-01-10T03:43:44;0.98;;;0.57;;
48552;SDS011;34335;51.566;6.994;2024-01-10T03:46:10;3.35;;;1.60;;
48552;SDS011;34335;51.566;6.994;2024-01-10T03:48:36;1.20;;;1.05;;
48552;SDS011;34335;51.566;6.994;2024-01-10T03:51:02;2.00;;;0.73;;
48552;SDS011;34335;51.566;6.994;2024-01-10T03:53:28;4.22;;;1.45;;
48552;SDS011;34335;51.566;6.994;2024-01-10T03:55:53;2.20;;;1.08;;
48552;SDS011;34335;51.566;6.994;2024-01-10T03:58:19;1.02;;;0.80;;
48552;SDS011;34335;51.566;6.994;2024-01-10T04:00:45;3.42;;;1.65;;
48552;SDS011;34335;51.566;6.994;2024-01-10T04:03:10;5.10;;;1.75;;
48552;SDS011;34335;51.566;6.994;2024-01-10T04:05:35;3.45;;;1.20;;
48552;SDS011;34335;51.566;6.994;2024-01-10T04:08:01;1.67;;;1.08;;
48552;SDS011;34335;51.566;6.994;2024-01-10T04:10:26;4.65;;;1.45;;
48552;SDS011;34335;51.566;6.994;2024-01-10T04:12:51;3.03;;;1.67;;
48552;SDS011;34335;51.566;6.994;2024-01-10T04:15:17;8.75;;;2.05;;
48552;SDS011;34335;51.566;6.994;2024-01-10T04:17:45;0.77;;;0.77;;
48552;SDS011;34335;51.566;6.994;2024-01-10T04:20:10;1.40;;;1.05;;
48552;SDS011;34335;51.566;6.994;2024-01-10T04:22:35;4.38;;;0.95;;
48552;SDS011;34335;51.566;6.994;2024-01-10T04:25:01;4.38;;;2.53;;
48552;SDS011;34335;51.566;6.994;2024-01-10T04:27:28;2.50;;;1.65;;
48552;SDS011;34335;51.566;6.994;2024-01-10T04:29:53;1.23;;;0.77;;
48552;SDS011;34335;51.566;6.994;2024-01-10T04:32:19;3.83;;;2.63;;
48552;SDS011;34335;51.566;6.994;2024-01-10T04:34:44;2.42;;;1.08;;
48552;SDS011;34335;51.566;6.994;2024-01-10T04:37:10;3.78;;;1.98;;
48552;SDS011;34335;51.566;6.994;2024-01-10T04:39:35;1.90;;;1.52;;
48552;SDS011;34335;51.566;6.994;2024-01-10T04:42:02;1.98;;;1.33;;
48552;SDS011;34335;51.566;6.994;2024-01-10T04:44:27;1.50;;;0.95;;
48552;SDS011;34335;51.566;6.994;2024-01-10T04:46:53;2.28;;;0.85;;
48552;SDS011;34335;51.566;6.994;2024-01-10T04:49:18;3.83;;;1.55;;
48552;SDS011;34335;51.566;6.994;2024-01-10T04:51:43;6.45;;;2.08;;
48552;SDS011;34335;51.566;6.994;2024-01-10T04:54:08;4.45;;;1.85;;
48552;SDS011;34335;51.566;6.994;2024-01-10T04:56:34;4.07;;;1.95;;
48552;SDS011;34335;51.566;6.994;2024-01-10T04:59:01;1.73;;;1.05;;
48552;SDS011;34335;51.566;6.994;2024-01-10T05:01:27;2.13;;;1.63;;
48552;SDS011;34335;51.566;6.994;2024-01-10T05:03:52;4.30;;;1.75;;
48552;SDS011;34335;51.566;6.994;2024-01-10T05:06:17;1.65;;;1.20;;
48552;SDS011;34335;51.566;6.994;2024-01-10T05:08:43;2.88;;;0.85;;
48552;SDS011;34335;51.566;6.994;2024-01-10T05:11:08;2.60;;;1.17;;
48552;SDS011;34335;51.566;6.994;2024-01-10T05:13:34;3.65;;;1.75;;
48552;SDS011;34335;51.566;6.994;2024-01-10T05:15:59;5.68;;;1.25;;
48552;SDS011;34335;51.566;6.994;2024-01-10T05:18:25;8.13;;;1.58;;
48552;SDS011;34335;51.566;6.994;2024-01-10T05:20:50;1.73;;;1.10;;
48552;SDS011;34335;51.566;6.994;2024-01-10T05:23:15;3.10;;;1.65;;
48552;SDS011;34335;51.566;6.994;2024-01-10T05:25:40;2.75;;;2.33;;
48552;SDS011;34335;51.566;6.994;2024-01-10T05:28:06;6.55;;;1.30;;
48552;SDS011;34335;51.566;6.994;2024-01-10T05:30:31;1.58;;;1.42;;
48552;SDS011;34335;51.566;6.994;2024-01-10T05:32:57;1.58;;;1.30;;
48552;SDS011;34335;51.566;6.994;2024-01-10T05:35:23;2.67;;;0.63;;
48552;SDS011;34335;51.566;6.994;2024-01-10T05:37:50;1.33;;;1.02;;
48552;SDS011;34335;51.566;6.994;2024-01-10T05:40:16;3.28;;;1.40;;
48552;SDS011;34335;51.566;6.994;2024-01-10T05:42:41;0.95;;;0.88;;
48552;SDS011;34335;51.566;6.994;2024-01-10T05:45:06;2.03;;;0.75;;
48552;SDS011;34335;51.566;6.994;2024-01-10T05:47:32;3.78;;;1.30;;
48552;SDS011;34335;51.566;6.994;2024-01-10T05:49:57;1.85;;;0.73;;
48552;SDS011;34335;51.566;6.994;2024-01-10T05:52:22;4.53;;;1.77;;
48552;SDS011;34335;51.566;6.994;2024-01-10T05:54:48;2.65;;;1.30;;
48552;SDS011;34335;51.566;6.994;2024-01-10T05:57:14;5.38;;;2.45;;
48552;SDS011;34335;51.566;6.994;2024-01-10T05:59:39;3.70;;;2.47;;
48552;SDS011;34335;51.566;6.994;2024-01-10T06:02:05;5.63;;;2.22;;
48552;SDS011;34335;51.566;6.994;2024-01-10T06:04:30;5.72;;;2.22;;
48552;SDS011;34335;51.566;6.994;2024-01-10T06:06:59;2.80;;;1.45;;
48552;SDS011;34335;51.566;6.994;2024-01-10T06:09:25;1.38;;;0.90;;
48552;SDS011;34335;51.566;6.994;2024-01-10T06:11:50;1.85;;;1.02;;
48552;SDS011;34335;51.566;6.994;2024-01-10T06:14:16;2.58;;;1.75;;
48552;SDS011;34335;51.566;6.994;2024-01-10T06:16:42;2.88;;;1.60;;
48552;SDS011;34335;51.566;6.994;2024-01-10T06:19:07;7.80;;;1.67;;
48552;SDS011;34335;51.566;6.994;2024-01-10T06:21:32;5.15;;;1.95;;
48552;SDS011;34335;51.566;6.994;2024-01-10T06:23:58;0.75;;;0.57;;
48552;SDS011;34335;51.566;6.994;2024-01-10T06:26:23;3.42;;;2.25;;
48552;SDS011;34335;51.566;6.994;2024-01-10T06:28:48;2.58;;;1.35;;
48552;SDS011;34335;51.566;6.994;2024-01-10T06:31:13;2.67;;;1.48;;
48552;SDS011;34335;51.566;6.994;2024-01-10T06:33:39;9.93;;;2.35;;
48552;SDS011;34335;51.566;6.994;2024-01-10T06:36:04;12.40;;;2.92;;
48552;SDS011;34335;51.566;6.994;2024-01-10T06:38:30;4.88;;;1.83;;
48552;SDS011;34335;51.566;6.994;2024-01-10T06:40:55;1.58;;;1.33;;
48552;SDS011;34335;51.566;6.994;2024-01-10T06:43:21;2.80;;;1.83;;
48552;SDS011;34335;51.566;6.994;2024-01-10T06:45:46;2.67;;;1.92;;
48552;SDS011;34335;51.566;6.994;2024-01-10T06:48:13;2.15;;;1.23;;
48552;SDS011;34335;51.566;6.994;2024-01-10T06:50:38;6.78;;;2.15;;
48552;SDS011;34335;51.566;6.994;2024-01-10T06:53:04;8.07;;;2.90;;
48552;SDS011;34335;51.566;6.994;2024-01-10T06:55:29;6.32;;;1.88;;
48552;SDS011;34335;51.566;6.994;2024-01-10T06:57:55;8.07;;;3.13;;
48552;SDS011;34335;51.566;6.994;2024-01-10T07:00:20;2.03;;;1.23;;
48552;SDS011;34335;51.566;6.994;2024-01-10T07:02:46;4.53;;;1.73;;
48552;SDS011;34335;51.566;6.994;2024-01-10T07:05:12;6.30;;;2.13;;
48552;SDS011;34335;51.566;6.994;2024-01-10T07:07:37;2.63;;;1.48;;
48552;SDS011;34335;51.566;6.994;2024-01-10T07:10:03;4.93;;;1.60;;
48552;SDS011;34335;51.566;6.994;2024-01-10T07:12:34;1.83;;;1.33;;
48552;SDS011;34335;51.566;6.994;2024-01-10T07:15:00;5.25;;;2.13;;
48552;SDS011;34335;51.566;6.994;2024-01-10T07:17:28;6.25;;;2.40;;
48552;SDS011;34335;51.566;6.994;2024-01-10T07:19:53;6.50;;;3.70;;
48552;SDS011;34335;51.566;6.994;2024-01-10T07:22:21;9.63;;;2.58;;
48552;SDS011;34335;51.566;6.994;2024-01-10T07:24:47;3.15;;;1.95;;
48552;SDS011;34335;51.566;6.994;2024-01-10T07:27:12;7.82;;;2.35;;
48552;SDS011;34335;51.566;6.994;2024-01-10T07:29:39;7.88;;;2.60;;
48552;SDS011;34335;51.566;6.994;2024-01-10T07:32:05;5.57;;;1.38;;
48552;SDS011;34335;51.566;6.994;2024-01-10T07:34:30;11.77;;;2.03;;
48552;SDS011;34335;51.566;6.994;2024-01-10T07:36:55;2.17;;;0.95;;
48552;SDS011;34335;51.566;6.994;2024-01-10T07:39:21;3.28;;;1.67;;
48552;SDS011;34335;51.566;6.994;2024-01-10T07:41:46;5.60;;;3.42;;
48552;SDS011;34335;51.566;6.994;2024-01-10T07:44:14;3.13;;;1.60;;
48552;SDS011;34335;51.566;6.994;2024-01-10T07:46:40;7.03;;;1.88;;
48552;SDS011;34335;51.566;6.994;2024-01-10T07:49:05;6.43;;;1.20;;
48552;SDS011;34335;51.566;6.994;2024-01-10T07:51:30;7.25;;;2.13;;
48552;SDS011;34335;51.566;6.994;2024-01-10T07:53:56;7.80;;;1.85;;
48552;SDS011;34335;51.566;6.994;2024-01-10T07:56:22;8.90;;;3.00;;
48552;SDS011;34335;51.566;6.994;2024-01-10T07:58:47;4.22;;;2.85;;
48552;SDS011;34335;51.566;6.994;2024-01-10T08:01:14;3.50;;;2.10;;
48552;SDS011;34335;51.566;6.994;2024-01-10T08:03:39;8.05;;;2.85;;
48552;SDS011;34335;51.566;6.994;2024-01-10T08:06:05;2.92;;;0.95;;
48552;SDS011;34335;51.566;6.994;2024-01-10T08:08:31;5.47;;;2.05;;
48552;SDS011;34335;51.566;6.994;2024-01-10T08:10:56;0.80;;;0.80;;
48552;SDS011;34335;51.566;6.994;2024-01-10T08:13:21;4.43;;;1.33;;
48552;SDS011;34335;51.566;6.994;2024-01-10T08:15:47;11.80;;;3.08;;
48552;SDS011;34335;51.566;6.994;2024-01-10T08:18:12;1.90;;;1.58;;
48552;SDS011;34335;51.566;6.994;2024-01-10T08:20:39;7.28;;;3.40;;
48552;SDS011;34335;51.566;6.994;2024-01-10T08:23:04;5.20;;;3.78;;
48552;SDS011;34335;51.566;6.994;2024-01-10T08:25:29;5.82;;;2.10;;
48552;SDS011;34335;51.566;6.994;2024-01-10T08:27:55;2.40;;;1.65;;
48552;SDS011;34335;51.566;6.994;2024-01-10T08:30:21;7.13;;;3.28;;
48552;SDS011;34335;51.566;6.994;2024-01-10T08:32:47;4.18;;;2.30;;
48552;SDS011;34335;51.566;6.994;2024-01-10T08:35:13;3.50;;;2.25;;
48552;SDS011;34335;51.566;6.994;2024-01-10T08:37:38;7.75;;;2.65;;
48552;SDS011;34335;51.566;6.994;2024-01-10T08:40:07;5.00;;;2.40;;
48552;SDS011;34335;51.566;6.994;2024-01-10T08:42:36;5.57;;;2.60;;
48552;SDS011;34335;51.566;6.994;2024-01-10T08:45:03;5.43;;;2.58;;
48552;SDS011;34335;51.566;6.994;2024-01-10T08:47:29;3.25;;;2.13;;
48552;SDS011;34335;51.566;6.994;2024-01-10T08:49:57;3.70;;;2.28;;
48552;SDS011;34335;51.566;6.994;2024-01-10T08:52:23;4.43;;;1.90;;
48552;SDS011;34335;51.566;6.994;2024-01-10T08:54:48;3.25;;;2.78;;
48552;SDS011;34335;51.566;6.994;2024-01-10T08:57:13;4.03;;;2.45;;
48552;SDS011;34335;51.566;6.994;2024-01-10T08:59:41;7.60;;;2.50;;
48552;SDS011;34335;51.566;6.994;2024-01-10T09:02:07;9.13;;;3.42;;
48552;SDS011;34335;51.566;6.994;2024-01-10T09:04:32;6.20;;;3.35;;
48552;SDS011;34335;51.566;6.994;2024-01-10T09:06:58;6.82;;;3.47;;
48552;SDS011;34335;51.566;6.994;2024-01-10T09:09:23;1.90;;;0.93;;
48552;SDS011;34335;51.566;6.994;2024-01-10T09:11:49;7.80;;;4.40;;
48552;SDS011;34335;51.566;6.994;2024-01-10T09:14:14;3.72;;;3.20;;
48552;SDS011;34335;51.566;6.994;2024-01-10T09:16:40;4.60;;;3.17;;
48552;SDS011;34335;51.566;6.994;2024-01-10T09:19:05;6.75;;;3.15;;
48552;SDS011;34335;51.566;6.994;2024-01-10T09:21:30;2.05;;;1.85;;
48552;SDS011;34335;51.566;6.994;2024-01-10T09:23:55;9.82;;;4.70;;
48552;SDS011;34335;51.566;6.994;2024-01-10T09:26:21;2.78;;;1.73;;
48552;SDS011;34335;51.566;6.994;2024-01-10T09:28:47;3.45;;;2.50;;
48552;SDS011;34335;51.566;6.994;2024-01-10T09:31:12;5.40;;;1.90;;
48552;SDS011;34335;51.566;6.994;2024-01-10T09:33:39;17.35;;;2.53;;
48552;SDS011;34335;51.566;6.994;2024-01-10T09:36:05;2.38;;;1.60;;
48552;SDS011;34335;51.566;6.994;2024-01-10T09:38:34;4.13;;;1.95;;
48552;SDS011;34335;51.566;6.994;2024-01-10T09:41:01;5.18;;;2.75;;
48552;SDS011;34335;51.566;6.994;2024-01-10T09:43:29;8.48;;;3.50;;
48552;SDS011;34335;51.566;6.994;2024-01-10T09:45:55;1.90;;;1.30;;
48552;SDS011;34335;51.566;6.994;2024-01-10T09:48:23;7.25;;;3.05;;
48552;SDS011;34335;51.566;6.994;2024-01-10T09:50:50;5.10;;;2.92;;
48552;SDS011;34335;51.566;6.994;2024-01-10T09:53:20;10.43;;;3.50;;
48552;SDS011;34335;51.566;6.994;2024-01-10T09:55:48;5.63;;;1.73;;
48552;SDS011;34335;51.566;6.994;2024-01-10T09:58:14;3.40;;;1.88;;
48552;SDS011;34335;51.566;6.994;2024-01-10T10:00:39;8.02;;;2.92;;
48552;SDS011;34335;51.566;6.994;2024-01-10T10:03:08;3.90;;;1.60;;
48552;SDS011;34335;51.566;6.994;2024-01-10T10:05:37;5.43;;;2.05;;
48552;SDS011;34335;51.566;6.994;2024-01-10T10:08:03;3.30;;;2.08;;
48552;SDS011;34335;51.566;6.994;2024-01-10T10:10:31;5.57;;;2.70;;
48552;SDS011;34335;51.566;6.994;2024-01-10T10:12:57;5.18;;;2.22;;
48552;SDS011;34335;51.566;6.994;2024-01-10T10:15:23;13.30;;;4.60;;
48552;SDS011;34335;51.566;6.994;2024-01-10T10:17:53;3.30;;;2.03;;
48552;SDS011;34335;51.566;6.994;2024-01-10T10:20:22;1.80;;;0.52;;
48552;SDS011;34335;51.566;6.994;2024-01-10T10:23:05;10.70;;;4.15;;
48552;SDS011;34335;51.566;6.994;2024-01-10T10:25:32;9.40;;;2.97;;
48552;SDS011;34335;51.566;6.994;2024-01-10T10:27:59;4.65;;;2.97;;
48552;SDS011;34335;51.566;6.994;2024-01-10T10:30:26;5.93;;;2.97;;
48552;SDS011;34335;51.566;6.994;2024-01-10T10:32:51;7.60;;;2.50;;
48552;SDS011;34335;51.566;6.994;2024-01-10T10:35:18;2.38;;;1.98;;
48552;SDS011;34335;51.566;6.994;2024-01-10T10:37:45;7.35;;;4.57;;
48552;SDS011;34335;51.566;6.994;2024-01-10T10:40:12;3.97;;;2.78;;
48552;SDS011;34335;51.566;6.994;2024-01-10T10:45:08;8.52;;;3.78;;
48552;SDS011;34335;51.566;6.994;2024-01-10T10:47:37;7.80;;;3.83;;
48552;SDS011;34335;51.566;6.994;2024-01-10T10:50:04;4.95;;;2.70;;
48552;SDS011;34335;51.566;6.994;2024-01-10T10:52:30;12.30;;;6.38;;
48552;SDS011;34335;51.566;6.994;2024-01-10T10:54:57;12.70;;;3.88;;
48552;SDS011;34335;51.566;6.994;2024-01-10T10:57:25;5.53;;;2.85;;
48552;SDS011;34335;51.566;6.994;2024-01-10T10:59:51;12.60;;;4.13;;
48552;SDS011;34335;51.566;6.994;2024-01-10T11:02:20;2.20;;;1.55;;
48552;SDS011;34335;51.566;6.994;2024-01-10T11:04:49;2.53;;;1.95;;
48552;SDS011;34335;51.566;6.994;2024-01-10T11:07:16;4.38;;;3.17;;
48552;SDS011;34335;51.566;6.994;2024-01-10T11:09:43;7.82;;;3.25;;
48552;SDS011;34335;51.566;6.994;2024-01-10T11:12:16;13.20;;;2.85;;
48552;SDS011;34335;51.566;6.994;2024-01-10T11:15:06;5.72;;;2.17;;
48552;SDS011;34335;51.566;6.994;2024-01-10T11:18:25;6.40;;;3.33;;
48552;SDS011;34335;51.566;6.994;2024-01-10T11:23:50;7.72;;;2.85;;
48552;SDS011;34335;51.566;6.994;2024-01-10T11:26:18;11.52;;;3.95;;
48552;SDS011;34335;51.566;6.994;2024-01-10T11:28:44;10.43;;;4.70;;
48552;SDS011;34335;51.566;6.994;2024-01-10T11:31:10;12.63;;;3.92;;
48552;SDS011;34335;51.566;6.994;2024-01-10T11:33:36;3.10;;;1.55;;
48552;SDS011;34335;51.566;6.994;2024-01-10T11:41:26;6.68;;;3.38;;
48552;SDS011;34335;51.566;6.994;2024-01-10T11:46:33;13.02;;;5.43;;
48552;SDS011;34335;51.566;6.994;2024-01-10T11:48:59;13.48;;;4.97;;
48552;SDS011;34335;51.566;6.994;2024-01-10T11:51:24;14.10;;;5.38;;
48552;SDS011;34335;51.566;6.994;2024-01-10T11:53:50;8.18;;;4.18;;
48552;SDS011;34335;51.566;6.994;2024-01-10T11:56:17;10.40;;;5.13;;
48552;SDS011;34335;51.566;6.994;2024-01-10T11:58:53;17.27;;;4.35;;
48552;SDS011;34335;51.566;6.994;2024-01-10T12:01:38;12.80;;;4.18;;
48552;SDS011;34335;51.566;6.994;2024-01-10T12:04:04;9.93;;;3.90;;
48552;SDS011;34335;51.566;6.994;2024-01-10T12:06:36;12.30;;;4.88;;
48552;SDS011;34335;51.566;6.994;2024-01-10T12:09:02;10.48;;;5.18;;
48552;SDS011;34335;51.566;6.994;2024-01-10T12:11:34;14.48;;;4.90;;
48552;SDS011;34335;51.566;6.994;2024-01-10T12:13:59;14.70;;;5.40;;
48552;SDS011;34335;51.566;6.994;2024-01-10T12:16:26;7.07;;;4.18;;
48552;SDS011;34335;51.566;6.994;2024-01-10T12:18:51;9.73;;;3.10;;
48552;SDS011;34335;51.566;6.994;2024-01-10T12:21:17;10.10;;;5.35;;
48552;SDS011;34335;51.566;6.994;2024-01-10T12:23:42;15.98;;;5.90;;
48552;SDS011;34335;51.566;6.994;2024-01-10T12:26:09;9.48;;;4.22;;
48552;SDS011;34335;51.566;6.994;2024-01-10T12:28:38;16.13;;;5.70;;
48552;SDS011;34335;51.566;6.994;2024-01-10T12:31:04;14.68;;;5.47;;
48552;SDS011;34335;51.566;6.994;2024-01-10T12:33:33;12.30;;;5.35;;
48552;SDS011;34335;51.566;6.994;2024-01-10T12:36:08;8.52;;;5.07;;
48552;SDS011;34335;51.566;6.994;2024-01-10T12:38:35;11.20;;;5.47;;
48552;SDS011;34335;51.566;6.994;2024-01-10T12:41:01;15.43;;;6.90;;
48552;SDS011;34335;51.566;6.994;2024-01-10T12:43:28;8.77;;;5.63;;
48552;SDS011;34335;51.566;6.994;2024-01-10T12:48:32;9.73;;;5.05;;
48552;SDS011;34335;51.566;6.994;2024-01-10T12:51:06;20.77;;;5.75;;
48552;SDS011;34335;51.566;6.994;2024-01-10T12:53:35;15.10;;;6.97;;
48552;SDS011;34335;51.566;6.994;2024-01-10T12:56:06;14.65;;;5.05;;
48552;SDS011;34335;51.566;6.994;2024-01-10T12:58:33;15.18;;;6.53;;
48552;SDS011;34335;51.566;6.994;2024-01-10T13:01:00;13.50;;;5.55;;
48552;SDS011;34335;51.566;6.994;2024-01-10T13:03:26;12.88;;;5.47;;
48552;SDS011;34335;51.566;6.994;2024-01-10T13:05:52;10.45;;;5.13;;
48552;SDS011;34335;51.566;6.994;2024-01-10T13:08:17;6.85;;;3.22;;
48552;SDS011;34335;51.566;6.994;2024-01-10T13:10:44;11.40;;;4.78;;
48552;SDS011;34335;51.566;6.994;2024-01-10T13:13:10;8.10;;;3.92;;
48552;SDS011;34335;51.566;6.994;2024-01-10T13:15:36;11.93;;;5.50;;
48552;SDS011;34335;51.566;6.994;2024-01-10T13:18:01;6.47;;;3.22;;
48552;SDS011;34335;51.566;6.994;2024-01-10T13:20:27;13.50;;;5.38;;
48552;SDS011;34335;51.566;6.994;2024-01-10T13:22:52;10.30;;;5.72;;
48552;SDS011;34335;51.566;6.994;2024-01-10T13:25:18;6.60;;;3.90;;
48552;SDS011;34335;51.566;6.994;2024-01-10T13:27:46;10.00;;;4.35;;
48552;SDS011;34335;51.566;6.994;2024-01-10T13:30:11;15.20;;;6.10;;
48552;SDS011;34335;51.566;6.994;2024-01-10T13:32:37;18.45;;;6.55;;
48552;SDS011;34335;51.566;6.994;2024-01-10T13:35:02;14.63;;;6.03;;
48552;SDS011;34335;51.566;6.994;2024-01-10T13:37:31;9.63;;;4.00;;
48552;SDS011;34335;51.566;6.994;2024-01-10T13:39:57;14.95;;;6.13;;
48552;SDS011;34335;51.566;6.994;2024-01-10T13:42:23;8.47;;;4.73;;
48552;SDS011;34335;51.566;6.994;2024-01-10T13:44:48;15.82;;;6.07;;
48552;SDS011;34335;51.566;6.994;2024-01-10T13:47:14;10.20;;;5.03;;
48552;SDS011;34335;51.566;6.994;2024-01-10T13:49:39;12.87;;;5.13;;
48552;SDS011;34335;51.566;6.994;2024-01-10T13:52:05;15.00;;;5.57;;
48552;SDS011;34335;51.566;6.994;2024-01-10T13:54:31;14.43;;;5.70;;
48552;SDS011;34335;51.566;6.994;2024-01-10T13:56:56;14.50;;;5.93;;
48552;SDS011;34335;51.566;6.994;2024-01-10T13:59:22;15.00;;;5.68;;
48552;SDS011;34335;51.566;6.994;2024-01-10T14:01:47;12.97;;;5.97;;
48552;SDS011;34335;51.566;6.994;2024-01-10T14:04:12;10.38;;;4.20;;
48552;SDS011;34335;51.566;6.994;2024-01-10T14:06:38;13.13;;;4.10;;
48552;SDS011;34335;51.566;6.994;2024-01-10T14:09:03;11.32;;;5.10;;
48552;SDS011;34335;51.566;6.994;2024-01-10T14:11:28;12.40;;;5.10;;
48552;SDS011;34335;51.566;6.994;2024-01-10T14:13:54;16.13;;;5.60;;
48552;SDS011;34335;51.566;6.994;2024-01-10T14:16:19;11.88;;;4.97;;
48552;SDS011;34335;51.566;6.994;2024-01-10T14:18:44;8.97;;;5.53;;
48552;SDS011;34335;51.566;6.994;2024-01-10T14:21:10;12.02;;;6.85;;
48552;SDS011;34335;51.566;6.994;2024-01-10T14:23:36;10.00;;;5.65;;
48552;SDS011;34335;51.566;6.994;2024-01-10T14:26:01;15.73;;;5.30;;
48552;SDS011;34335;51.566;6.994;2024-01-10T14:28:26;12.02;;;5.15;;
48552;SDS011;34335;51.566;6.994;2024-01-10T14:30:52;10.87;;;4.83;;
48552;SDS011;34335;51.566;6.994;2024-01-10T14:33:17;16.93;;;6.33;;
48552;SDS011;34335;51.566;6.994;2024-01-10T14:35:42;10.57;;;4.30;;
48552;SDS011;34335;51.566;6.994;2024-01-10T14:38:07;11.20;;;4.35;;
48552;SDS011;34335;51.566;6.994;2024-01-10T14:40:33;11.38;;;4.20;;
48552;SDS011;34335;51.566;6.994;2024-01-10T14:42:58;13.57;;;5.30;;
48552;SDS011;34335;51.566;6.994;2024-01-10T14:45:24;14.20;;;5.40;;
48552;SDS011;34335;51.566;6.994;2024-01-10T14:47:49;8.30;;;4.15;;
48552;SDS011;34335;51.566;6.994;2024-01-10T14:50:15;9.85;;;3.75;;
48552;SDS011;34335;51.566;6.994;2024-01-10T14:52:40;11.02;;;5.07;;
48552;SDS011;34335;51.566;6.994;2024-01-10T14:55:06;13.90;;;6.37;;